sensor_id;sensor_type;location;lat;lon;timestamp;P1;durP1;ratioP1;P2;durP2;ratioP2
83719;SDS011;73702;49.668;8.544;2024-01-25T00:01:29;47.72;;;6.38;;
83719;SDS011;73702;49.668;8.544;2024-01-25T00:03:56;30.20;;;3.53;;
83719;SDS011;73702;49.668;8.544;2024-01-25T00:06:22;30.08;;;3.33;;
83719;SDS011;73702;49.668;8.544;2024-01-25T00:08:49;33.53;;;3.80;;
83719;SDS011;73702;49.668;8.544;2024-01-25T00:11:16;38.42;;;4.60;;
83719;SDS011;73702;49.668;8.544;2024-01-25T00:13:42;26.63;;;3.20;;
83719;SDS011;73702;49.668;8.544;2024-01-25T00:16:09;30.02;;;3.20;;
83719;SDS011;73702;49.668;8.544;2024-01-25T00:18:36;38.50;;;4.53;;
83719;SDS011;73702;49.668;8.544;2024-01-25T00:21:03;36.38;;;3.63;;
83719;SDS011;73702;49.668;8.544;2024-01-25T00:23:29;40.28;;;4.72;;
83719;SDS011;73702;49.668;8.544;2024-01-25T00:25:56;25.55;;;3.33;;
83719;SDS011;73702;49.668;8.544;2024-01-25T00:28:22;35.80;;;3.40;;
83719;SDS011;73702;49.668;8.544;2024-01-25T00:30:48;27.05;;;3.38;;
83719;SDS011;73702;49.668;8.544;2024-01-25T00:33:15;25.35;;;3.22;;
83719;SDS011;73702;49.668;8.544;2024-01-25T00:35:42;34.35;;;3.60;;
83719;SDS011;73702;49.668;8.544;2024-01-25T00:38:09;32.05;;;4.07;;
83719;SDS011;73702;49.668;8.544;2024-01-25T00:40:35;36.00;;;5.10;;
83719;SDS011;73702;49.668;8.544;2024-01-25T00:43:02;39.33;;;4.32;;
83719;SDS011;73702;49.668;8.544;2024-01-25T00:45:28;34.90;;;4.35;;
83719;SDS011;73702;49.668;8.544;2024-01-25T00:47:55;31.85;;;3.40;;
83719;SDS011;73702;49.668;8.544;2024-01-25T00:50:22;37.08;;;4.45;;
83719;SDS011;73702;49.668;8.544;2024-01-25T00:52:49;27.50;;;3.58;;
83719;SDS011;73702;49.668;8.544;2024-01-25T00:55:16;32.20;;;3.88;;
83719;SDS011;73702;49.668;8.544;2024-01-25T00:57:43;38.38;;;4.35;;
83719;SDS011;73702;49.668;8.544;2024-01-25T01:00:10;32.30;;;3.92;;
83719;SDS011;73702;49.668;8.544;2024-01-25T01:02:41;34.42;;;4.35;;
83719;SDS011;73702;49.668;8.544;2024-01-25T01:05:09;31.60;;;3.55;;
83719;SDS011;73702;49.668;8.544;2024-01-25T01:07:36;45.95;;;4.60;;
83719;SDS011;73702;49.668;8.544;2024-01-25T01:10:03;31.70;;;3.20;;
83719;SDS011;73702;49.668;8.544;2024-01-25T01:12:30;31.90;;;3.92;;
83719;SDS011;73702;49.668;8.544;2024-01-25T01:14:57;33.83;;;3.75;;
83719;SDS011;73702;49.668;8.544;2024-01-25T01:17:23;27.10;;;3.30;;
83719;SDS011;73702;49.668;8.544;2024-01-25T01:19:50;25.42;;;3.10;;
83719;SDS011;73702;49.668;8.544;2024-01-25T01:22:16;31.02;;;3.45;;
83719;SDS011;73702;49.668;8.544;2024-01-25T01:24:43;39.20;;;3.90;;
83719;SDS011;73702;49.668;8.544;2024-01-25T01:27:10;30.27;;;3.72;;
83719;SDS011;73702;49.668;8.544;2024-01-25T01:29:36;43.53;;;4.70;;
83719;SDS011;73702;49.668;8.544;2024-01-25T01:32:03;32.33;;;3.88;;
83719;SDS011;73702;49.668;8.544;2024-01-25T01:34:29;28.00;;;3.83;;
83719;SDS011;73702;49.668;8.544;2024-01-25T01:36:56;27.55;;;2.78;;
83719;SDS011;73702;49.668;8.544;2024-01-25T01:39:23;29.20;;;3.10;;
83719;SDS011;73702;49.668;8.544;2024-01-25T01:41:49;27.65;;;3.10;;
83719;SDS011;73702;49.668;8.544;2024-01-25T01:44:16;31.10;;;3.58;;
83719;SDS011;73702;49.668;8.544;2024-01-25T01:46:42;51.40;;;4.93;;
83719;SDS011;73702;49.668;8.544;2024-01-25T01:49:10;25.27;;;3.60;;
83719;SDS011;73702;49.668;8.544;2024-01-25T01:51:38;38.97;;;4.30;;
83719;SDS011;73702;49.668;8.544;2024-01-25T01:54:06;35.40;;;3.78;;
83719;SDS011;73702;49.668;8.544;2024-01-25T01:56:33;30.05;;;3.08;;
83719;SDS011;73702;49.668;8.544;2024-01-25T01:59:00;32.53;;;3.28;;
83719;SDS011;73702;49.668;8.544;2024-01-25T02:01:27;39.55;;;4.25;;
83719;SDS011;73702;49.668;8.544;2024-01-25T02:03:54;35.72;;;3.90;;
83719;SDS011;73702;49.668;8.544;2024-01-25T02:06:21;26.80;;;3.30;;
83719;SDS011;73702;49.668;8.544;2024-01-25T02:08:48;41.63;;;3.92;;
83719;SDS011;73702;49.668;8.544;2024-01-25T02:11:15;32.35;;;3.25;;
83719;SDS011;73702;49.668;8.544;2024-01-25T02:13:42;36.70;;;3.70;;
83719;SDS011;73702;49.668;8.544;2024-01-25T02:16:08;27.77;;;3.15;;
83719;SDS011;73702;49.668;8.544;2024-01-25T02:18:35;33.70;;;3.63;;
83719;SDS011;73702;49.668;8.544;2024-01-25T02:21:02;36.05;;;4.00;;
83719;SDS011;73702;49.668;8.544;2024-01-25T02:23:28;28.10;;;3.55;;
83719;SDS011;73702;49.668;8.544;2024-01-25T02:25:55;30.08;;;3.67;;
83719;SDS011;73702;49.668;8.544;2024-01-25T02:28:22;30.75;;;3.63;;
83719;SDS011;73702;49.668;8.544;2024-01-25T02:30:49;40.22;;;4.45;;
83719;SDS011;73702;49.668;8.544;2024-01-25T02:33:17;30.00;;;3.83;;
83719;SDS011;73702;49.668;8.544;2024-01-25T02:35:44;45.85;;;4.85;;
83719;SDS011;73702;49.668;8.544;2024-01-25T02:38:11;26.48;;;3.17;;
83719;SDS011;73702;49.668;8.544;2024-01-25T02:40:38;33.55;;;3.83;;
83719;SDS011;73702;49.668;8.544;2024-01-25T02:43:05;43.13;;;4.53;;
83719;SDS011;73702;49.668;8.544;2024-01-25T02:45:31;22.17;;;2.88;;
83719;SDS011;73702;49.668;8.544;2024-01-25T02:47:58;33.63;;;4.20;;
83719;SDS011;73702;49.668;8.544;2024-01-25T02:50:26;37.80;;;4.07;;
83719;SDS011;73702;49.668;8.544;2024-01-25T02:52:52;37.15;;;3.80;;
83719;SDS011;73702;49.668;8.544;2024-01-25T02:55:19;32.08;;;3.60;;
83719;SDS011;73702;49.668;8.544;2024-01-25T02:57:46;40.50;;;4.38;;
83719;SDS011;73702;49.668;8.544;2024-01-25T03:00:13;40.90;;;4.25;;
83719;SDS011;73702;49.668;8.544;2024-01-25T03:02:40;25.08;;;3.17;;
83719;SDS011;73702;49.668;8.544;2024-01-25T03:05:06;33.05;;;3.42;;
83719;SDS011;73702;49.668;8.544;2024-01-25T03:07:33;23.00;;;2.80;;
83719;SDS011;73702;49.668;8.544;2024-01-25T03:10:00;32.35;;;3.58;;
83719;SDS011;73702;49.668;8.544;2024-01-25T03:12:26;21.77;;;3.30;;
83719;SDS011;73702;49.668;8.544;2024-01-25T03:14:53;38.42;;;4.35;;
83719;SDS011;73702;49.668;8.544;2024-01-25T03:17:20;33.97;;;3.63;;
83719;SDS011;73702;49.668;8.544;2024-01-25T03:19:46;35.00;;;4.45;;
83719;SDS011;73702;49.668;8.544;2024-01-25T03:22:13;27.23;;;3.58;;
83719;SDS011;73702;49.668;8.544;2024-01-25T03:24:40;35.15;;;3.92;;
83719;SDS011;73702;49.668;8.544;2024-01-25T03:27:06;30.40;;;3.65;;
83719;SDS011;73702;49.668;8.544;2024-01-25T03:29:32;26.52;;;2.95;;
83719;SDS011;73702;49.668;8.544;2024-01-25T03:31:59;46.50;;;5.38;;
83719;SDS011;73702;49.668;8.544;2024-01-25T03:34:26;27.58;;;3.58;;
83719;SDS011;73702;49.668;8.544;2024-01-25T03:36:52;36.83;;;3.92;;
83719;SDS011;73702;49.668;8.544;2024-01-25T03:39:19;36.30;;;5.03;;
83719;SDS011;73702;49.668;8.544;2024-01-25T03:41:46;37.47;;;4.03;;
83719;SDS011;73702;49.668;8.544;2024-01-25T03:44:12;26.88;;;3.35;;
83719;SDS011;73702;49.668;8.544;2024-01-25T03:46:39;26.52;;;3.25;;
83719;SDS011;73702;49.668;8.544;2024-01-25T03:49:05;28.52;;;3.20;;
83719;SDS011;73702;49.668;8.544;2024-01-25T03:51:32;34.35;;;3.55;;
83719;SDS011;73702;49.668;8.544;2024-01-25T03:53:59;45.85;;;4.38;;
83719;SDS011;73702;49.668;8.544;2024-01-25T03:56:25;37.72;;;4.10;;
83719;SDS011;73702;49.668;8.544;2024-01-25T03:58:52;41.80;;;4.10;;
83719;SDS011;73702;49.668;8.544;2024-01-25T04:01:18;41.38;;;4.22;;
83719;SDS011;73702;49.668;8.544;2024-01-25T04:03:45;42.30;;;3.95;;
83719;SDS011;73702;49.668;8.544;2024-01-25T04:06:12;25.10;;;3.40;;
83719;SDS011;73702;49.668;8.544;2024-01-25T04:08:38;37.45;;;3.38;;
83719;SDS011;73702;49.668;8.544;2024-01-25T04:11:05;25.20;;;3.40;;
83719;SDS011;73702;49.668;8.544;2024-01-25T04:13:31;29.55;;;3.65;;
83719;SDS011;73702;49.668;8.544;2024-01-25T04:15:58;42.67;;;4.47;;
83719;SDS011;73702;49.668;8.544;2024-01-25T04:18:25;26.52;;;2.90;;
83719;SDS011;73702;49.668;8.544;2024-01-25T04:20:51;37.63;;;3.95;;
83719;SDS011;73702;49.668;8.544;2024-01-25T04:23:18;31.88;;;3.53;;
83719;SDS011;73702;49.668;8.544;2024-01-25T04:25:45;29.30;;;3.05;;
83719;SDS011;73702;49.668;8.544;2024-01-25T04:28:12;29.75;;;3.30;;
83719;SDS011;73702;49.668;8.544;2024-01-25T04:30:38;27.85;;;3.13;;
83719;SDS011;73702;49.668;8.544;2024-01-25T04:33:05;43.65;;;4.15;;
83719;SDS011;73702;49.668;8.544;2024-01-25T04:35:32;26.38;;;2.83;;
83719;SDS011;73702;49.668;8.544;2024-01-25T04:37:59;37.10;;;4.22;;
83719;SDS011;73702;49.668;8.544;2024-01-25T04:40:25;24.13;;;3.63;;
83719;SDS011;73702;49.668;8.544;2024-01-25T04:42:52;40.90;;;4.45;;
83719;SDS011;73702;49.668;8.544;2024-01-25T04:45:19;24.40;;;2.70;;
83719;SDS011;73702;49.668;8.544;2024-01-25T04:47:45;31.88;;;3.22;;
83719;SDS011;73702;49.668;8.544;2024-01-25T04:50:12;27.67;;;3.25;;
83719;SDS011;73702;49.668;8.544;2024-01-25T04:52:39;21.38;;;2.65;;
83719;SDS011;73702;49.668;8.544;2024-01-25T04:55:05;43.53;;;3.97;;
83719;SDS011;73702;49.668;8.544;2024-01-25T04:57:32;26.00;;;3.60;;
83719;SDS011;73702;49.668;8.544;2024-01-25T04:59:59;39.33;;;5.13;;
83719;SDS011;73702;49.668;8.544;2024-01-25T05:02:25;34.22;;;3.75;;
83719;SDS011;73702;49.668;8.544;2024-01-25T05:04:52;42.00;;;4.18;;
83719;SDS011;73702;49.668;8.544;2024-01-25T05:07:19;29.85;;;3.42;;
83719;SDS011;73702;49.668;8.544;2024-01-25T05:09:54;41.92;;;4.63;;
83719;SDS011;73702;49.668;8.544;2024-01-25T05:12:21;32.30;;;3.80;;
83719;SDS011;73702;49.668;8.544;2024-01-25T05:14:47;27.65;;;3.83;;
83719;SDS011;73702;49.668;8.544;2024-01-25T05:17:14;32.28;;;3.58;;
83719;SDS011;73702;49.668;8.544;2024-01-25T05:19:40;28.27;;;2.95;;
83719;SDS011;73702;49.668;8.544;2024-01-25T05:22:07;34.65;;;3.83;;
83719;SDS011;73702;49.668;8.544;2024-01-25T05:24:34;29.17;;;3.22;;
83719;SDS011;73702;49.668;8.544;2024-01-25T05:27:00;47.53;;;5.13;;
83719;SDS011;73702;49.668;8.544;2024-01-25T05:29:27;27.55;;;2.97;;
83719;SDS011;73702;49.668;8.544;2024-01-25T05:31:53;38.53;;;5.05;;
83719;SDS011;73702;49.668;8.544;2024-01-25T05:34:20;36.58;;;3.40;;
83719;SDS011;73702;49.668;8.544;2024-01-25T05:36:47;24.05;;;2.75;;
83719;SDS011;73702;49.668;8.544;2024-01-25T05:39:14;29.42;;;3.20;;
83719;SDS011;73702;49.668;8.544;2024-01-25T05:41:41;24.13;;;3.20;;
83719;SDS011;73702;49.668;8.544;2024-01-25T05:44:07;37.75;;;4.10;;
83719;SDS011;73702;49.668;8.544;2024-01-25T05:46:34;40.33;;;4.93;;
83719;SDS011;73702;49.668;8.544;2024-01-25T05:49:00;41.67;;;4.25;;
83719;SDS011;73702;49.668;8.544;2024-01-25T05:51:27;35.17;;;4.65;;
83719;SDS011;73702;49.668;8.544;2024-01-25T05:53:53;35.42;;;3.65;;
83719;SDS011;73702;49.668;8.544;2024-01-25T05:56:20;38.47;;;4.13;;
83719;SDS011;73702;49.668;8.544;2024-01-25T05:58:46;46.17;;;4.22;;
83719;SDS011;73702;49.668;8.544;2024-01-25T06:01:13;48.25;;;5.07;;
83719;SDS011;73702;49.668;8.544;2024-01-25T06:03:39;36.88;;;3.80;;
83719;SDS011;73702;49.668;8.544;2024-01-25T06:06:07;55.92;;;5.78;;
83719;SDS011;73702;49.668;8.544;2024-01-25T06:08:34;26.40;;;2.90;;
83719;SDS011;73702;49.668;8.544;2024-01-25T06:11:01;42.92;;;4.60;;
83719;SDS011;73702;49.668;8.544;2024-01-25T06:13:27;47.85;;;5.05;;
83719;SDS011;73702;49.668;8.544;2024-01-25T06:15:54;33.90;;;4.32;;
83719;SDS011;73702;49.668;8.544;2024-01-25T06:18:20;28.58;;;3.35;;
83719;SDS011;73702;49.668;8.544;2024-01-25T06:20:49;31.38;;;4.25;;
83719;SDS011;73702;49.668;8.544;2024-01-25T06:23:16;32.85;;;4.22;;
83719;SDS011;73702;49.668;8.544;2024-01-25T06:25:43;29.45;;;3.92;;
83719;SDS011;73702;49.668;8.544;2024-01-25T06:28:09;33.53;;;4.47;;
83719;SDS011;73702;49.668;8.544;2024-01-25T06:30:36;33.08;;;4.22;;
83719;SDS011;73702;49.668;8.544;2024-01-25T06:33:02;49.35;;;5.47;;
83719;SDS011;73702;49.668;8.544;2024-01-25T06:35:29;29.20;;;4.00;;
83719;SDS011;73702;49.668;8.544;2024-01-25T06:37:56;32.25;;;4.47;;
83719;SDS011;73702;49.668;8.544;2024-01-25T06:40:22;36.28;;;4.57;;
83719;SDS011;73702;49.668;8.544;2024-01-25T06:42:49;36.75;;;4.32;;
83719;SDS011;73702;49.668;8.544;2024-01-25T06:45:16;37.20;;;5.03;;
83719;SDS011;73702;49.668;8.544;2024-01-25T06:47:42;39.50;;;4.80;;
83719;SDS011;73702;49.668;8.544;2024-01-25T06:50:09;47.35;;;5.55;;
83719;SDS011;73702;49.668;8.544;2024-01-25T06:52:35;37.22;;;4.57;;
83719;SDS011;73702;49.668;8.544;2024-01-25T06:55:02;32.15;;;4.53;;
83719;SDS011;73702;49.668;8.544;2024-01-25T06:57:29;38.50;;;4.72;;
83719;SDS011;73702;49.668;8.544;2024-01-25T06:59:55;35.80;;;4.75;;
83719;SDS011;73702;49.668;8.544;2024-01-25T07:02:22;43.28;;;6.25;;
83719;SDS011;73702;49.668;8.544;2024-01-25T07:04:49;32.80;;;4.50;;
83719;SDS011;73702;49.668;8.544;2024-01-25T07:07:18;44.92;;;5.15;;
83719;SDS011;73702;49.668;8.544;2024-01-25T07:14:37;35.47;;;4.63;;
83719;SDS011;73702;49.668;8.544;2024-01-25T07:17:06;34.00;;;5.20;;
83719;SDS011;73702;49.668;8.544;2024-01-25T07:19:32;30.58;;;3.88;;
83719;SDS011;73702;49.668;8.544;2024-01-25T07:21:59;40.88;;;4.55;;
83719;SDS011;73702;49.668;8.544;2024-01-25T07:24:25;30.17;;;4.03;;
83719;SDS011;73702;49.668;8.544;2024-01-25T07:26:52;23.60;;;3.33;;
83719;SDS011;73702;49.668;8.544;2024-01-25T07:29:21;38.00;;;4.97;;
83719;SDS011;73702;49.668;8.544;2024-01-25T07:31:48;44.58;;;5.55;;
83719;SDS011;73702;49.668;8.544;2024-01-25T07:34:15;38.65;;;5.75;;
83719;SDS011;73702;49.668;8.544;2024-01-25T07:36:41;31.80;;;4.40;;
83719;SDS011;73702;49.668;8.544;2024-01-25T07:39:08;38.15;;;6.40;;
83719;SDS011;73702;49.668;8.544;2024-01-25T07:41:34;31.45;;;5.63;;
83719;SDS011;73702;49.668;8.544;2024-01-25T07:44:03;27.35;;;5.88;;
83719;SDS011;73702;49.668;8.544;2024-01-25T07:46:29;35.70;;;6.38;;
83719;SDS011;73702;49.668;8.544;2024-01-25T07:48:56;47.13;;;7.90;;
83719;SDS011;73702;49.668;8.544;2024-01-25T07:51:23;49.53;;;10.45;;
83719;SDS011;73702;49.668;8.544;2024-01-25T07:53:49;31.40;;;6.90;;
83719;SDS011;73702;49.668;8.544;2024-01-25T07:56:16;61.13;;;8.80;;
83719;SDS011;73702;49.668;8.544;2024-01-25T07:58:42;52.90;;;7.22;;
83719;SDS011;73702;49.668;8.544;2024-01-25T08:01:09;39.58;;;7.40;;
83719;SDS011;73702;49.668;8.544;2024-01-25T08:03:36;38.05;;;7.45;;
83719;SDS011;73702;49.668;8.544;2024-01-25T08:06:03;34.42;;;7.00;;
83719;SDS011;73702;49.668;8.544;2024-01-25T08:08:30;38.42;;;6.60;;
83719;SDS011;73702;49.668;8.544;2024-01-25T08:10:56;25.60;;;5.60;;
83719;SDS011;73702;49.668;8.544;2024-01-25T08:13:23;43.03;;;6.95;;
83719;SDS011;73702;49.668;8.544;2024-01-25T08:15:50;39.72;;;6.43;;
83719;SDS011;73702;49.668;8.544;2024-01-25T08:18:17;46.22;;;8.23;;
83719;SDS011;73702;49.668;8.544;2024-01-25T08:20:43;31.92;;;5.00;;
83719;SDS011;73702;49.668;8.544;2024-01-25T08:23:10;34.35;;;4.78;;
83719;SDS011;73702;49.668;8.544;2024-01-25T08:25:37;40.22;;;5.18;;
83719;SDS011;73702;49.668;8.544;2024-01-25T08:28:04;25.60;;;3.75;;
83719;SDS011;73702;49.668;8.544;2024-01-25T08:30:30;25.67;;;4.07;;
83719;SDS011;73702;49.668;8.544;2024-01-25T08:32:57;35.00;;;5.82;;
83719;SDS011;73702;49.668;8.544;2024-01-25T08:35:23;70.25;;;10.55;;
83719;SDS011;73702;49.668;8.544;2024-01-25T08:37:50;39.55;;;6.07;;
83719;SDS011;73702;49.668;8.544;2024-01-25T08:40:17;44.80;;;6.53;;
83719;SDS011;73702;49.668;8.544;2024-01-25T08:42:43;35.00;;;4.70;;
83719;SDS011;73702;49.668;8.544;2024-01-25T08:45:10;32.72;;;6.25;;
83719;SDS011;73702;49.668;8.544;2024-01-25T08:47:40;33.17;;;6.50;;
83719;SDS011;73702;49.668;8.544;2024-01-25T08:50:07;70.78;;;16.63;;
83719;SDS011;73702;49.668;8.544;2024-01-25T08:52:33;35.20;;;8.52;;
83719;SDS011;73702;49.668;8.544;2024-01-25T08:55:00;27.38;;;5.03;;
83719;SDS011;73702;49.668;8.544;2024-01-25T08:57:26;39.50;;;5.72;;
83719;SDS011;73702;49.668;8.544;2024-01-25T08:59:52;29.52;;;4.40;;
83719;SDS011;73702;49.668;8.544;2024-01-25T09:02:19;40.25;;;5.20;;
83719;SDS011;73702;49.668;8.544;2024-01-25T09:04:45;34.15;;;4.18;;
83719;SDS011;73702;49.668;8.544;2024-01-25T09:07:12;32.00;;;4.22;;
83719;SDS011;73702;49.668;8.544;2024-01-25T09:09:39;30.70;;;4.00;;
83719;SDS011;73702;49.668;8.544;2024-01-25T09:12:06;26.50;;;4.18;;
83719;SDS011;73702;49.668;8.544;2024-01-25T09:14:32;34.60;;;4.90;;
83719;SDS011;73702;49.668;8.544;2024-01-25T09:16:59;35.75;;;4.47;;
83719;SDS011;73702;49.668;8.544;2024-01-25T09:19:25;31.25;;;4.15;;
83719;SDS011;73702;49.668;8.544;2024-01-25T09:21:52;31.25;;;4.13;;
83719;SDS011;73702;49.668;8.544;2024-01-25T09:24:19;48.20;;;5.30;;
83719;SDS011;73702;49.668;8.544;2024-01-25T09:26:45;36.33;;;4.18;;
83719;SDS011;73702;49.668;8.544;2024-01-25T09:29:12;65.38;;;7.18;;
83719;SDS011;73702;49.668;8.544;2024-01-25T09:31:39;65.80;;;7.13;;
83719;SDS011;73702;49.668;8.544;2024-01-25T09:34:06;64.18;;;6.82;;
83719;SDS011;73702;49.668;8.544;2024-01-25T09:36:34;67.22;;;7.88;;
83719;SDS011;73702;49.668;8.544;2024-01-25T09:39:00;66.78;;;7.38;;
83719;SDS011;73702;49.668;8.544;2024-01-25T09:41:27;71.05;;;7.30;;
83719;SDS011;73702;49.668;8.544;2024-01-25T09:43:53;66.07;;;8.48;;
83719;SDS011;73702;49.668;8.544;2024-01-25T09:46:20;72.95;;;7.88;;
83719;SDS011;73702;49.668;8.544;2024-01-25T09:48:47;68.45;;;7.97;;
83719;SDS011;73702;49.668;8.544;2024-01-25T09:51:14;73.22;;;8.27;;
83719;SDS011;73702;49.668;8.544;2024-01-25T09:53:40;63.10;;;7.43;;
83719;SDS011;73702;49.668;8.544;2024-01-25T09:56:08;73.65;;;8.18;;
83719;SDS011;73702;49.668;8.544;2024-01-25T09:58:39;69.47;;;7.75;;
83719;SDS011;73702;49.668;8.544;2024-01-25T10:01:10;69.10;;;7.78;;
83719;SDS011;73702;49.668;8.544;2024-01-25T10:03:37;65.90;;;7.05;;
83719;SDS011;73702;49.668;8.544;2024-01-25T10:06:06;67.57;;;7.35;;
83719;SDS011;73702;49.668;8.544;2024-01-25T10:08:33;84.50;;;8.07;;
83719;SDS011;73702;49.668;8.544;2024-01-25T10:10:59;76.50;;;7.90;;
83719;SDS011;73702;49.668;8.544;2024-01-25T10:13:27;80.65;;;8.10;;
83719;SDS011;73702;49.668;8.544;2024-01-25T10:15:54;35.03;;;4.00;;
83719;SDS011;73702;49.668;8.544;2024-01-25T10:18:22;37.92;;;4.35;;
83719;SDS011;73702;49.668;8.544;2024-01-25T10:20:55;33.22;;;4.18;;
83719;SDS011;73702;49.668;8.544;2024-01-25T10:23:23;39.92;;;5.32;;
83719;SDS011;73702;49.668;8.544;2024-01-25T10:25:50;26.60;;;3.75;;
83719;SDS011;73702;49.668;8.544;2024-01-25T10:28:17;36.80;;;4.25;;
83719;SDS011;73702;49.668;8.544;2024-01-25T10:30:44;29.75;;;3.88;;
83719;SDS011;73702;49.668;8.544;2024-01-25T10:33:11;31.02;;;4.13;;
83719;SDS011;73702;49.668;8.544;2024-01-25T10:35:38;42.60;;;5.10;;
83719;SDS011;73702;49.668;8.544;2024-01-25T10:38:05;36.55;;;4.35;;
83719;SDS011;73702;49.668;8.544;2024-01-25T10:40:32;41.60;;;4.90;;
83719;SDS011;73702;49.668;8.544;2024-01-25T10:42:59;36.05;;;3.88;;
83719;SDS011;73702;49.668;8.544;2024-01-25T10:45:25;32.42;;;3.85;;
83719;SDS011;73702;49.668;8.544;2024-01-25T10:47:52;38.50;;;5.18;;
83719;SDS011;73702;49.668;8.544;2024-01-25T10:50:18;32.83;;;4.15;;
83719;SDS011;73702;49.668;8.544;2024-01-25T10:52:45;24.15;;;3.67;;
83719;SDS011;73702;49.668;8.544;2024-01-25T10:55:13;29.73;;;4.05;;
83719;SDS011;73702;49.668;8.544;2024-01-25T10:57:44;41.03;;;5.13;;
83719;SDS011;73702;49.668;8.544;2024-01-25T11:00:11;33.10;;;3.92;;
83719;SDS011;73702;49.668;8.544;2024-01-25T11:02:41;32.22;;;4.13;;
83719;SDS011;73702;49.668;8.544;2024-01-25T11:05:11;25.73;;;3.63;;
83719;SDS011;73702;49.668;8.544;2024-01-25T11:07:41;36.75;;;4.90;;
83719;SDS011;73702;49.668;8.544;2024-01-25T11:10:27;31.08;;;3.45;;
83719;SDS011;73702;49.668;8.544;2024-01-25T11:12:58;46.17;;;5.50;;
83719;SDS011;73702;49.668;8.544;2024-01-25T11:15:32;42.85;;;4.68;;
83719;SDS011;73702;49.668;8.544;2024-01-25T11:17:59;29.65;;;3.72;;
83719;SDS011;73702;49.668;8.544;2024-01-25T11:22:56;40.10;;;4.47;;
83719;SDS011;73702;49.668;8.544;2024-01-25T11:25:23;27.85;;;3.58;;
83719;SDS011;73702;49.668;8.544;2024-01-25T11:27:50;36.95;;;4.15;;
83719;SDS011;73702;49.668;8.544;2024-01-25T11:30:17;26.85;;;3.80;;
83719;SDS011;73702;49.668;8.544;2024-01-25T11:32:45;39.83;;;4.28;;
83719;SDS011;73702;49.668;8.544;2024-01-25T11:35:12;29.88;;;4.13;;
83719;SDS011;73702;49.668;8.544;2024-01-25T11:37:39;49.10;;;5.35;;
83719;SDS011;73702;49.668;8.544;2024-01-25T11:40:05;28.85;;;3.92;;
83719;SDS011;73702;49.668;8.544;2024-01-25T11:42:32;34.63;;;4.80;;
83719;SDS011;73702;49.668;8.544;2024-01-25T11:44:58;34.38;;;4.97;;
83719;SDS011;73702;49.668;8.544;2024-01-25T11:47:25;28.60;;;3.22;;
83719;SDS011;73702;49.668;8.544;2024-01-25T11:49:51;26.17;;;3.75;;
83719;SDS011;73702;49.668;8.544;2024-01-25T11:52:18;26.63;;;3.45;;
83719;SDS011;73702;49.668;8.544;2024-01-25T11:54:45;38.25;;;4.18;;
83719;SDS011;73702;49.668;8.544;2024-01-25T11:57:11;25.08;;;3.22;;
83719;SDS011;73702;49.668;8.544;2024-01-25T11:59:38;36.47;;;3.90;;
83719;SDS011;73702;49.668;8.544;2024-01-25T12:02:05;26.10;;;4.32;;
83719;SDS011;73702;49.668;8.544;2024-01-25T12:04:32;36.45;;;5.03;;
83719;SDS011;73702;49.668;8.544;2024-01-25T12:07:02;27.23;;;3.67;;
83719;SDS011;73702;49.668;8.544;2024-01-25T12:09:29;35.22;;;5.25;;
83719;SDS011;73702;49.668;8.544;2024-01-25T12:11:56;35.03;;;4.05;;
83719;SDS011;73702;49.668;8.544;2024-01-25T12:14:26;26.10;;;3.40;;
83719;SDS011;73702;49.668;8.544;2024-01-25T12:16:52;42.63;;;5.05;;
83719;SDS011;73702;49.668;8.544;2024-01-25T12:19:21;32.10;;;3.70;;
83719;SDS011;73702;49.668;8.544;2024-01-25T12:21:47;29.75;;;4.70;;
83719;SDS011;73702;49.668;8.544;2024-01-25T12:24:14;27.17;;;3.92;;
83719;SDS011;73702;49.668;8.544;2024-01-25T12:26:43;35.13;;;3.72;;
83719;SDS011;73702;49.668;8.544;2024-01-25T12:29:10;30.27;;;3.15;;
83719;SDS011;73702;49.668;8.544;2024-01-25T12:31:36;40.97;;;4.85;;
83719;SDS011;73702;49.668;8.544;2024-01-25T12:34:03;26.05;;;3.50;;
83719;SDS011;73702;49.668;8.544;2024-01-25T12:36:39;42.30;;;4.75;;
83719;SDS011;73702;49.668;8.544;2024-01-25T12:39:05;21.85;;;3.40;;
83719;SDS011;73702;49.668;8.544;2024-01-25T12:41:32;31.33;;;4.00;;
83719;SDS011;73702;49.668;8.544;2024-01-25T12:43:59;36.60;;;4.03;;
83719;SDS011;73702;49.668;8.544;2024-01-25T12:46:26;33.13;;;3.60;;
83719;SDS011;73702;49.668;8.544;2024-01-25T12:48:54;35.28;;;4.15;;
83719;SDS011;73702;49.668;8.544;2024-01-25T12:51:21;29.02;;;3.72;;
83719;SDS011;73702;49.668;8.544;2024-01-25T12:53:48;28.88;;;4.00;;
83719;SDS011;73702;49.668;8.544;2024-01-25T12:56:17;24.27;;;2.85;;
83719;SDS011;73702;49.668;8.544;2024-01-25T12:58:43;31.40;;;4.53;;
83719;SDS011;73702;49.668;8.544;2024-01-25T13:01:10;34.92;;;3.90;;
83719;SDS011;73702;49.668;8.544;2024-01-25T13:03:37;37.47;;;4.43;;
83719;SDS011;73702;49.668;8.544;2024-01-25T13:06:05;28.95;;;3.70;;
83719;SDS011;73702;49.668;8.544;2024-01-25T13:08:32;22.83;;;3.20;;
83719;SDS011;73702;49.668;8.544;2024-01-25T13:10:58;32.58;;;4.20;;
83719;SDS011;73702;49.668;8.544;2024-01-25T13:13:24;28.85;;;4.13;;
83719;SDS011;73702;49.668;8.544;2024-01-25T13:15:51;23.52;;;2.83;;
83719;SDS011;73702;49.668;8.544;2024-01-25T13:18:17;29.85;;;4.30;;
83719;SDS011;73702;49.668;8.544;2024-01-25T13:20:44;36.78;;;4.25;;
83719;SDS011;73702;49.668;8.544;2024-01-25T13:23:11;34.53;;;3.97;;
83719;SDS011;73702;49.668;8.544;2024-01-25T13:25:37;36.10;;;4.20;;
83719;SDS011;73702;49.668;8.544;2024-01-25T13:28:04;30.90;;;4.07;;
83719;SDS011;73702;49.668;8.544;2024-01-25T13:30:31;36.25;;;4.70;;
83719;SDS011;73702;49.668;8.544;2024-01-25T13:32:57;33.40;;;4.80;;
83719;SDS011;73702;49.668;8.544;2024-01-25T13:35:24;29.65;;;3.67;;
83719;SDS011;73702;49.668;8.544;2024-01-25T13:37:50;27.95;;;3.42;;
83719;SDS011;73702;49.668;8.544;2024-01-25T13:40:17;18.95;;;2.85;;
83719;SDS011;73702;49.668;8.544;2024-01-25T13:42:46;39.13;;;4.88;;
83719;SDS011;73702;49.668;8.544;2024-01-25T13:45:13;27.52;;;3.58;;
83719;SDS011;73702;49.668;8.544;2024-01-25T13:47:39;47.97;;;5.30;;
83719;SDS011;73702;49.668;8.544;2024-01-25T13:50:06;35.83;;;4.60;;
83719;SDS011;73702;49.668;8.544;2024-01-25T13:52:33;34.28;;;4.15;;
83719;SDS011;73702;49.668;8.544;2024-01-25T13:54:59;26.45;;;3.65;;
83719;SDS011;73702;49.668;8.544;2024-01-25T13:57:25;24.15;;;3.05;;
83719;SDS011;73702;49.668;8.544;2024-01-25T13:59:52;31.13;;;4.07;;
83719;SDS011;73702;49.668;8.544;2024-01-25T14:02:19;28.80;;;3.83;;
83719;SDS011;73702;49.668;8.544;2024-01-25T14:04:45;35.50;;;4.90;;
83719;SDS011;73702;49.668;8.544;2024-01-25T14:07:13;30.70;;;3.80;;
83719;SDS011;73702;49.668;8.544;2024-01-25T14:09:40;40.63;;;4.32;;
83719;SDS011;73702;49.668;8.544;2024-01-25T14:12:07;36.20;;;4.82;;
83719;SDS011;73702;49.668;8.544;2024-01-25T14:14:36;28.45;;;4.20;;
83719;SDS011;73702;49.668;8.544;2024-01-25T14:17:02;31.63;;;4.10;;
83719;SDS011;73702;49.668;8.544;2024-01-25T14:19:29;31.58;;;4.05;;
83719;SDS011;73702;49.668;8.544;2024-01-25T14:21:56;29.73;;;4.43;;
83719;SDS011;73702;49.668;8.544;2024-01-25T14:24:41;35.95;;;4.22;;
83719;SDS011;73702;49.668;8.544;2024-01-25T14:27:08;26.70;;;3.38;;
83719;SDS011;73702;49.668;8.544;2024-01-25T14:29:34;29.58;;;4.30;;
83719;SDS011;73702;49.668;8.544;2024-01-25T14:32:01;26.00;;;3.70;;
83719;SDS011;73702;49.668;8.544;2024-01-25T14:34:27;24.15;;;2.85;;
83719;SDS011;73702;49.668;8.544;2024-01-25T14:36:54;21.40;;;2.90;;
83719;SDS011;73702;49.668;8.544;2024-01-25T14:39:21;22.35;;;2.72;;